Time;durP1;ratioP1;P1;durP2;ratioP2;P2;SDS_P1;SDS_P2;PMS_P1;PMS_P2;Temp;Humidity;BMP_temperature;BMP_pressure;BME280_temperature;BME280_humidity;BME280_pressure;Samples;Min_cycle;Max_cycle;Signal;HPM_P1;HPM_P2
2022/01/29 00:01:01;;;;;;;3.50;1.43;;;17.60;62.60;;;;;;10372056;28;20210;-64
2022/01/29 00:06:24;;;;;;;3.07;1.70;;;17.60;62.70;;;;;;10368226;28;20309;-65
2022/01/29 00:11:46;;;;;;;3.70;1.77;;;17.60;62.70;;;;;;10370891;28;20237;-64
2022/01/29 00:17:11;;;;;;;3.10;1.80;;;17.60;62.70;;;;;;10372835;28;20620;-65
2022/01/29 00:22:34;;;;;;;3.53;2.07;;;17.60;62.70;;;;;;10371704;28;20225;-65
2022/01/29 00:27:59;;;;;;;3.03;1.77;;;17.60;62.70;;;;;;10371873;28;20198;-64
2022/01/29 00:33:21;;;;;;;3.77;2.00;;;17.60;62.70;;;;;;10372731;28;20198;-65
2022/01/29 00:38:44;;;;;;;5.10;2.43;;;17.50;62.70;;;;;;10370503;28;20592;-64
2022/01/29 00:44:06;;;;;;;3.50;2.00;;;17.50;62.60;;;;;;10371180;28;20206;-64
2022/01/29 00:49:29;;;;;;;3.17;2.03;;;17.60;62.70;;;;;;10376551;28;20587;-64
2022/01/29 00:54:52;;;;;;;3.93;2.27;;;17.50;62.70;;;;;;10370666;28;20540;-65
2022/01/29 01:00:17;;;;;;;4.77;2.27;;;17.50;62.70;;;;;;10370647;28;20513;-64
2022/01/29 01:05:39;;;;;;;5.53;3.07;;;17.50;62.70;;;;;;10369771;28;20190;-64
2022/01/29 01:11:04;;;;;;;4.03;2.17;;;17.50;62.70;;;;;;10365537;28;20218;-64
2022/01/29 01:16:26;;;;;;;3.97;2.20;;;17.50;62.70;;;;;;10369175;28;20248;-64
2022/01/29 01:21:48;;;;;;;4.03;2.23;;;17.50;62.80;;;;;;10369018;28;20229;-64
2022/01/29 01:27:11;;;;;;;3.33;2.40;;;17.50;62.80;;;;;;10368472;28;20186;-64
2022/01/29 01:32:33;;;;;;;3.97;2.33;;;17.60;62.80;;;;;;10365217;28;20233;-64
2022/01/29 01:37:59;;;;;;;3.03;2.40;;;17.50;62.80;;;;;;10367636;28;20233;-65
2022/01/29 01:43:23;;;;;;;4.10;2.63;;;17.50;62.70;;;;;;10367927;28;20695;-65
2022/01/29 01:48:45;;;;;;;3.83;2.53;;;17.50;62.70;;;;;;10381722;28;20217;-64
2022/01/29 01:54:08;;;;;;;4.17;2.53;;;17.50;62.80;;;;;;10366899;28;20319;-65
2022/01/29 01:59:31;;;;;;;2.83;2.33;;;17.50;62.70;;;;;;10366167;28;20222;-64
2022/01/29 02:04:54;;;;;;;4.27;2.70;;;17.50;62.80;;;;;;10364993;28;20198;-65
2022/01/29 02:10:18;;;;;;;2.80;2.33;;;17.50;62.80;;;;;;10368778;28;20210;-64
2022/01/29 02:15:41;;;;;;;4.23;2.97;;;17.50;62.80;;;;;;10367520;28;20224;-64
2022/01/29 02:21:04;;;;;;;3.87;2.40;;;17.50;62.80;;;;;;10365775;28;20226;-65
2022/01/29 02:26:27;;;;;;;4.20;2.63;;;17.50;62.80;;;;;;10366250;28;20206;-65
2022/01/29 02:31:51;;;;;;;3.13;2.43;;;17.50;62.80;;;;;;10361705;28;20214;-65
2022/01/29 02:37:13;;;;;;;3.67;2.70;;;17.50;62.80;;;;;;10372516;28;20579;-65
2022/01/29 02:42:37;;;;;;;3.03;2.63;;;17.50;62.80;;;;;;10375407;28;20301;-65
2022/01/29 02:47:59;;;;;;;3.47;2.73;;;17.50;62.80;;;;;;10372969;28;20187;-66
2022/01/29 02:53:21;;;;;;;3.87;2.73;;;17.50;62.80;;;;;;10374324;28;20194;-64
2022/01/29 02:58:46;;;;;;;4.07;2.77;;;17.50;62.80;;;;;;10374344;28;20230;-64
2022/01/29 03:04:09;;;;;;;4.90;2.60;;;17.50;62.80;;;;;;10369625;28;20280;-64
2022/01/29 03:09:31;;;;;;;4.23;2.63;;;17.50;62.90;;;;;;10373618;28;20237;-65
2022/01/29 03:14:54;;;;;;;4.37;2.60;;;17.50;62.90;;;;;;10373587;28;20730;-64
2022/01/29 03:20:17;;;;;;;3.10;2.57;;;17.50;62.90;;;;;;10373914;28;20214;-64
2022/01/29 03:25:39;;;;;;;4.63;2.67;;;17.50;62.90;;;;;;10370071;28;20195;-64
2022/01/29 03:31:02;;;;;;;3.67;2.50;;;17.50;62.90;;;;;;10372460;28;20587;-64
2022/01/29 03:36:25;;;;;;;3.23;2.63;;;17.50;62.90;;;;;;10373516;28;20214;-64
2022/01/29 03:41:48;;;;;;;4.07;2.73;;;17.50;62.90;;;;;;10372229;28;20684;-64
2022/01/29 03:47:11;;;;;;;3.27;2.53;;;17.50;62.90;;;;;;10372227;28;20210;-64
2022/01/29 03:52:34;;;;;;;3.23;2.33;;;17.50;62.90;;;;;;10372401;28;20218;-65
2022/01/29 03:57:56;;;;;;;3.23;2.50;;;17.50;62.90;;;;;;10370967;28;20218;-65
2022/01/29 04:03:19;;;;;;;3.70;2.33;;;17.50;62.90;;;;;;10371579;28;20686;-64
2022/01/29 04:08:43;;;;;;;3.90;2.20;;;17.50;62.90;;;;;;10365453;28;20222;-64
2022/01/29 04:14:13;;;;;;;2.97;2.30;;;17.40;62.90;;;;;;10373320;28;20194;-64
2022/01/29 04:19:37;;;;;;;2.53;2.17;;;17.50;62.90;;;;;;10372323;28;20219;-65
2022/01/29 04:24:59;;;;;;;2.30;1.93;;;17.50;62.90;;;;;;10372252;28;20201;-65
2022/01/29 04:30:28;;;;;;;3.97;2.40;;;17.50;63.00;;;;;;10370490;28;20236;-65
2022/01/29 04:35:52;;;;;;;3.20;2.00;;;17.50;63.00;;;;;;10370550;28;20595;-65
2022/01/29 04:41:15;;;;;;;3.20;2.10;;;17.50;63.00;;;;;;10370095;28;20218;-64
2022/01/29 04:46:37;;;;;;;2.70;2.20;;;17.50;62.90;;;;;;10369469;28;20191;-64
2022/01/29 04:52:01;;;;;;;2.93;2.10;;;17.40;62.90;;;;;;10368628;28;20214;-64
2022/01/29 04:57:23;;;;;;;2.87;1.97;;;17.50;62.90;;;;;;10369539;28;20219;-64
2022/01/29 05:02:45;;;;;;;2.93;2.13;;;17.50;63.00;;;;;;10371292;28;20222;-65
2022/01/29 05:08:11;;;;;;;2.43;2.00;;;17.40;62.90;;;;;;10382649;28;20213;-64
2022/01/29 05:13:36;;;;;;;3.40;2.30;;;17.40;62.90;;;;;;10370767;28;20828;-64
2022/01/29 05:30:19;;;;;;;2.50;2.20;;;17.40;63.00;;;;;;10369940;28;20211;-64
2022/01/29 05:35:41;;;;;;;3.10;2.13;;;17.40;63.00;;;;;;10369672;28;20214;-64
2022/01/29 05:41:05;;;;;;;1.90;1.80;;;17.50;63.10;;;;;;10366663;28;20210;-65
2022/01/29 05:46:27;;;;;;;2.30;1.97;;;17.40;63.00;;;;;;10365178;28;20237;-64
2022/01/29 05:51:50;;;;;;;3.70;2.10;;;17.50;63.10;;;;;;10365830;28;20700;-65
2022/01/29 05:57:13;;;;;;;2.30;2.10;;;17.50;63.10;;;;;;10363994;28;20218;-66
2022/01/29 06:02:36;;;;;;;3.10;2.00;;;17.50;63.00;;;;;;10368617;28;20595;-64
2022/01/29 06:07:58;;;;;;;2.33;2.00;;;17.50;63.10;;;;;;10368275;28;20194;-65
2022/01/29 06:13:22;;;;;;;2.53;2.20;;;17.50;63.10;;;;;;10368768;28;20194;-64
2022/01/29 06:18:44;;;;;;;2.23;2.00;;;17.50;63.10;;;;;;10367905;28;20222;-64
2022/01/29 06:24:06;;;;;;;3.57;2.20;;;17.50;63.10;;;;;;10368592;28;20655;-64
2022/01/29 06:29:30;;;;;;;2.40;2.20;;;17.50;63.10;;;;;;10340305;28;20221;-64
2022/01/29 06:34:52;;;;;;;2.40;2.10;;;17.60;63.10;;;;;;10364070;28;20293;-64
2022/01/29 06:40:15;;;;;;;2.73;2.10;;;17.50;63.10;;;;;;10365458;28;20214;-64
2022/01/29 06:45:40;;;;;;;3.30;1.93;;;17.50;63.10;;;;;;10367127;28;20198;-65
2022/01/29 06:51:02;;;;;;;2.30;2.10;;;17.50;63.10;;;;;;10381613;28;20221;-65
2022/01/29 06:56:25;;;;;;;2.13;1.80;;;17.50;63.10;;;;;;10365661;28;20229;-64
2022/01/29 07:01:48;;;;;;;2.50;2.00;;;17.50;63.10;;;;;;10366149;28;20222;-64
2022/01/29 07:07:10;;;;;;;2.13;1.87;;;17.50;63.10;;;;;;10367312;28;20190;-64
2022/01/29 07:12:33;;;;;;;2.83;2.10;;;17.50;63.10;;;;;;10365275;28;20589;-64
2022/01/29 07:17:56;;;;;;;2.00;1.87;;;17.50;63.10;;;;;;10365654;28;20219;-64
2022/01/29 07:23:18;;;;;;;2.37;2.03;;;17.50;63.10;;;;;;10368814;28;20198;-64
2022/01/29 07:28:41;;;;;;;1.87;1.70;;;17.50;63.20;;;;;;10374256;28;20238;-64
2022/01/29 07:34:04;;;;;;;2.17;1.83;;;17.50;63.20;;;;;;10372586;28;20206;-64
2022/01/29 07:39:27;;;;;;;1.70;1.60;;;17.50;63.20;;;;;;10365967;28;20222;-64
2022/01/29 07:44:50;;;;;;;2.23;1.80;;;17.60;63.20;;;;;;10370672;28;20202;-65
2022/01/29 07:50:13;;;;;;;2.47;1.83;;;17.50;63.20;;;;;;10373168;28;20213;-64
2022/01/29 07:55:35;;;;;;;1.97;1.40;;;17.50;63.20;;;;;;10365047;28;20220;-65
2022/01/29 08:00:57;;;;;;;1.80;1.63;;;17.50;63.20;;;;;;10371667;28;20214;-64
2022/01/29 08:06:23;;;;;;;2.13;1.87;;;17.50;63.20;;;;;;10372665;28;20199;-61
2022/01/29 08:11:46;;;;;;;1.77;1.57;;;17.50;63.20;;;;;;10372620;28;20738;-64
2022/01/29 08:17:08;;;;;;;2.07;1.80;;;17.50;63.20;;;;;;10372846;28;20749;-65
2022/01/29 08:22:32;;;;;;;2.17;1.60;;;17.50;63.30;;;;;;10383056;28;20361;-66
2022/01/29 08:27:54;;;;;;;2.60;2.30;;;17.50;63.20;;;;;;10370433;28;20194;-64
2022/01/29 08:33:18;;;;;;;5.00;2.10;;;17.60;63.40;;;;;;10370727;28;20194;-64
2022/01/29 08:38:42;;;;;;;2.20;2.00;;;17.60;63.50;;;;;;10370041;28;20312;-68
2022/01/29 08:44:05;;;;;;;3.10;1.70;;;17.60;63.60;;;;;;10358103;28;20190;-67
2022/01/29 08:49:27;;;;;;;1.83;1.73;;;17.60;64.20;;;;;;10376292;28;20214;-65
2022/01/29 08:54:50;;;;;;;4.50;1.60;;;17.60;64.50;;;;;;10370117;28;20202;-65
2022/01/29 09:00:14;;;;;;;2.63;1.70;;;17.60;64.40;;;;;;10361891;28;20222;-65
2022/01/29 09:05:36;;;;;;;2.73;1.53;;;17.60;64.50;;;;;;10376556;28;20197;-65
2022/01/29 09:11:00;;;;;;;2.30;1.50;;;17.60;64.50;;;;;;10385375;28;20565;-64
2022/01/29 09:16:22;;;;;;;2.57;2.10;;;17.60;64.40;;;;;;10375226;28;20232;-66
2022/01/29 09:21:44;;;;;;;1.87;1.53;;;17.60;63.90;;;;;;10366440;28;20213;-65
2022/01/29 09:27:07;;;;;;;2.53;1.77;;;17.60;64.20;;;;;;10367070;28;20195;-66
2022/01/29 09:32:30;;;;;;;6.17;2.83;;;17.60;64.10;;;;;;10385622;28;20225;-65
2022/01/29 09:37:52;;;;;;;12.53;4.27;;;17.70;64.20;;;;;;10355480;28;20234;-66
2022/01/29 09:43:16;;;;;;;15.87;5.33;;;17.70;64.50;;;;;;10367057;28;20962;-65
2022/01/29 09:48:39;;;;;;;16.20;5.20;;;18.10;64.00;;;;;;10366596;28;20257;-64
2022/01/29 09:54:01;;;;;;;8.63;4.17;;;17.80;65.10;;;;;;10362232;28;20665;-64
2022/01/29 09:59:25;;;;;;;10.57;4.30;;;17.80;66.00;;;;;;10367757;28;20221;-65
2022/01/29 10:04:48;;;;;;;11.00;4.00;;;17.70;65.90;;;;;;10367093;28;20572;-65
2022/01/29 10:10:19;;;;;;;8.70;3.37;;;17.70;65.70;;;;;;10367207;28;20286;-64
2022/01/29 10:15:42;;;;;;;7.00;3.63;;;17.70;65.50;;;;;;10366919;28;20206;-64
2022/01/29 10:21:14;;;;;;;10.23;3.90;;;17.60;65.50;;;;;;10359215;28;20707;-64
2022/01/29 10:26:37;;;;;;;8.60;3.20;;;17.70;65.40;;;;;;10364380;28;20213;-64
2022/01/29 10:32:02;;;;;;;8.70;3.47;;;17.60;65.40;;;;;;10366355;28;20214;-65
2022/01/29 10:37:26;;;;;;;6.97;3.00;;;17.60;65.30;;;;;;10366749;28;20292;-64
2022/01/29 10:42:48;;;;;;;5.63;3.27;;;17.60;65.30;;;;;;10326747;28;20237;-64
2022/01/29 10:48:11;;;;;;;7.07;2.70;;;17.60;65.30;;;;;;10385359;28;20208;-65
2022/01/29 10:53:33;;;;;;;4.20;2.23;;;17.60;65.20;;;;;;10389602;28;20214;-65
2022/01/29 10:58:55;;;;;;;4.33;2.37;;;17.60;65.20;;;;;;10364811;28;20898;-64
2022/01/29 11:04:19;;;;;;;3.87;2.20;;;17.60;65.10;;;;;;10372479;28;20214;-65
2022/01/29 11:09:43;;;;;;;3.50;2.13;;;17.60;65.00;;;;;;10357140;28;20221;-66
2022/01/29 11:15:06;;;;;;;2.37;1.60;;;17.60;65.00;;;;;;10333119;28;20199;-65
2022/01/29 11:20:36;;;;;;;3.07;1.90;;;17.60;65.00;;;;;;10356880;28;20222;-66
2022/01/29 11:26:00;;;;;;;2.50;1.77;;;17.60;64.90;;;;;;10371827;28;20285;-67
2022/01/29 11:31:22;;;;;;;4.20;2.03;;;17.60;64.90;;;;;;10371984;28;20434;-65
2022/01/29 11:37:06;;;;;;;2.77;1.50;;;18.60;61.20;;;;;;10378209;28;20331;-65
2022/01/29 11:42:31;;;;;;;2.53;1.77;;;18.00;63.20;;;;;;10373883;28;20222;-66
2022/01/29 11:47:53;;;;;;;5.27;1.97;;;17.80;64.20;;;;;;10372521;28;20198;-66
2022/01/29 11:53:19;;;;;;;4.83;1.80;;;17.70;64.50;;;;;;10373222;28;20198;-69
2022/01/29 11:58:41;;;;;;;2.67;1.50;;;17.70;64.70;;;;;;10372473;28;20230;-65
2022/01/29 12:04:03;;;;;;;3.90;1.60;;;17.60;64.80;;;;;;10359378;28;20206;-66
2022/01/29 12:09:29;;;;;;;2.27;1.20;;;17.60;64.80;;;;;;10364003;28;20636;-66
2022/01/29 12:14:52;;;;;;;2.23;1.40;;;17.60;64.80;;;;;;10373249;28;20205;-68
2022/01/29 12:20:16;;;;;;;3.77;1.60;;;17.60;64.80;;;;;;10372387;28;20218;-65
2022/01/29 12:25:39;;;;;;;2.43;1.23;;;17.60;64.90;;;;;;10371887;28;20576;-66
2022/01/29 12:31:05;;;;;;;3.00;1.73;;;17.60;64.90;;;;;;10370937;28;20268;-67
2022/01/29 12:36:33;;;;;;;3.13;1.57;;;17.60;64.90;;;;;;10365883;28;20194;-66
2022/01/29 12:42:05;;;;;;;2.80;1.43;;;17.60;64.90;;;;;;10371012;28;20223;-66
2022/01/29 12:47:28;;;;;;;2.57;1.30;;;17.60;64.90;;;;;;10369610;28;20190;-66
2022/01/29 12:53:06;;;;;;;3.43;1.57;;;17.70;65.10;;;;;;10370741;28;20222;-66
2022/01/29 12:58:31;;;;;;;2.83;1.50;;;17.70;65.10;;;;;;10369616;28;20592;-64
2022/01/29 13:04:01;;;;;;;2.47;1.37;;;17.60;65.30;;;;;;10358410;28;20206;-66
2022/01/29 13:09:25;;;;;;;2.87;1.40;;;17.60;65.40;;;;;;10346951;28;20700;-65
2022/01/29 13:14:52;;;;;;;2.47;1.50;;;17.70;65.50;;;;;;10356086;28;20206;-66
2022/01/29 13:20:16;;;;;;;2.67;1.57;;;17.60;65.40;;;;;;10369539;28;20600;-65
2022/01/29 13:25:40;;;;;;;2.67;1.40;;;17.60;65.50;;;;;;10369253;28;20206;-66
2022/01/29 13:31:04;;;;;;;1.60;0.93;;;17.60;65.60;;;;;;10368814;28;20696;-65
2022/01/29 13:36:35;;;;;;;2.27;1.30;;;17.60;65.60;;;;;;10384069;28;20194;-67
2022/01/29 13:42:08;;;;;;;2.33;1.13;;;17.70;65.70;;;;;;10368167;28;20627;-68
2022/01/29 13:47:32;;;;;;;2.93;1.10;;;17.70;65.60;;;;;;10366098;28;20206;-69
2022/01/29 13:53:04;;;;;;;1.57;1.00;;;17.60;65.60;;;;;;10389431;28;20217;-68
2022/01/29 13:58:28;;;;;;;2.33;1.20;;;17.70;65.60;;;;;;10413096;28;20229;-68
2022/01/29 14:03:53;;;;;;;2.37;1.20;;;17.60;65.60;;;;;;10345186;28;20206;-67
2022/01/29 14:09:22;;;;;;;2.67;1.20;;;17.70;65.60;;;;;;10329262;28;20230;-65
2022/01/29 14:14:47;;;;;;;1.63;1.00;;;17.70;65.50;;;;;;10354853;28;20198;-65
2022/01/29 14:20:14;;;;;;;2.07;1.00;;;17.70;65.70;;;;;;10367879;28;20226;-65
2022/01/29 14:25:36;;;;;;;3.43;1.10;;;17.70;65.60;;;;;;10366678;28;20197;-68
2022/01/29 14:30:58;;;;;;;1.67;1.00;;;17.60;65.60;;;;;;10348329;28;20214;-68
2022/01/29 14:36:21;;;;;;;2.10;1.00;;;17.60;65.60;;;;;;10355840;28;20199;-68
2022/01/29 14:41:44;;;;;;;1.37;0.90;;;17.60;65.70;;;;;;10374602;28;20222;-66
2022/01/29 14:47:07;;;;;;;2.93;0.90;;;17.60;65.70;;;;;;10400821;28;20672;-64
2022/01/29 14:52:31;;;;;;;2.83;1.13;;;17.60;65.50;;;;;;10374205;28;20225;-67
2022/01/29 14:57:53;;;;;;;1.80;1.13;;;17.60;65.50;;;;;;10373398;28;20206;-67
2022/01/29 15:03:15;;;;;;;3.20;1.67;;;17.60;65.50;;;;;;10372922;28;20198;-66
2022/01/29 15:08:39;;;;;;;2.40;1.73;;;17.60;65.50;;;;;;10373725;28;20219;-64
2022/01/29 15:14:01;;;;;;;4.63;2.40;;;17.60;65.50;;;;;;10374333;28;20199;-68
2022/01/29 15:19:24;;;;;;;4.37;2.63;;;17.60;65.50;;;;;;10368009;28;20223;-68
2022/01/29 15:24:48;;;;;;;4.33;2.20;;;17.60;65.50;;;;;;10372584;28;20206;-68
2022/01/29 15:30:11;;;;;;;4.30;2.80;;;17.70;65.60;;;;;;10372476;28;20584;-67
2022/01/29 15:35:33;;;;;;;5.17;2.67;;;17.70;65.60;;;;;;10373797;28;20226;-67
2022/01/29 15:40:59;;;;;;;3.37;2.27;;;17.70;65.60;;;;;;10370807;28;20218;-66
2022/01/29 15:46:22;;;;;;;5.73;2.60;;;17.70;65.60;;;;;;10363810;28;20210;-68
2022/01/29 15:51:44;;;;;;;4.33;2.57;;;17.70;65.70;;;;;;10372774;28;20218;-65
2022/01/29 15:57:08;;;;;;;6.47;2.57;;;17.70;65.70;;;;;;10394882;28;20598;-67
2022/01/29 16:02:30;;;;;;;5.27;2.70;;;17.60;65.70;;;;;;10367464;28;20222;-69
2022/01/29 16:07:52;;;;;;;4.70;2.80;;;17.60;65.70;;;;;;10370540;28;20202;-68
2022/01/29 16:13:18;;;;;;;5.03;2.17;;;17.60;66.30;;;;;;10371252;28;20198;-68
2022/01/29 16:18:40;;;;;;;5.10;2.63;;;17.60;65.70;;;;;;10371259;28;20250;-68
2022/01/29 16:24:02;;;;;;;3.63;2.23;;;17.60;65.70;;;;;;10371644;28;20206;-67
2022/01/29 16:29:26;;;;;;;4.80;1.90;;;17.60;65.70;;;;;;10369757;28;20207;-67
2022/01/29 16:34:49;;;;;;;3.43;2.47;;;17.60;65.70;;;;;;10369537;28;20198;-68
2022/01/29 16:40:11;;;;;;;4.97;2.10;;;17.60;65.70;;;;;;10368707;28;20218;-67
2022/01/29 16:45:38;;;;;;;3.93;2.50;;;17.60;65.70;;;;;;10370560;28;20197;-68
2022/01/29 16:51:00;;;;;;;3.57;2.23;;;17.60;65.60;;;;;;10393472;28;20207;-68
2022/01/29 16:56:22;;;;;;;3.70;1.73;;;17.60;65.70;;;;;;10370012;28;20210;-68
2022/01/29 17:01:47;;;;;;;3.57;1.90;;;17.60;65.60;;;;;;10369486;28;20700;-68
2022/01/29 17:07:09;;;;;;;3.37;1.93;;;17.60;65.70;;;;;;10370412;28;20206;-68
2022/01/29 17:12:32;;;;;;;2.90;1.80;;;17.60;65.70;;;;;;10371301;28;20332;-68
2022/01/29 17:17:56;;;;;;;2.40;1.43;;;17.60;65.60;;;;;;10369377;28;20249;-67
2022/01/29 17:23:20;;;;;;;2.73;1.60;;;17.60;65.50;;;;;;10369139;28;20210;-68
2022/01/29 17:28:42;;;;;;;2.83;1.40;;;17.60;65.50;;;;;;10368234;28;20214;-68
2022/01/29 17:34:07;;;;;;;3.93;1.97;;;17.60;65.50;;;;;;10372091;28;20565;-67
2022/01/29 17:39:29;;;;;;;2.23;1.47;;;17.60;65.50;;;;;;10366317;28;20222;-68
2022/01/29 17:44:52;;;;;;;2.87;1.63;;;17.60;65.50;;;;;;10370101;28;20298;-68
2022/01/29 17:50:15;;;;;;;2.50;1.63;;;17.60;65.40;;;;;;10366203;28;20219;-68
2022/01/29 17:55:38;;;;;;;3.30;1.50;;;17.60;65.40;;;;;;10368165;28;20687;-68
2022/01/29 18:01:01;;;;;;;3.60;1.90;;;17.60;65.40;;;;;;10367980;28;20716;-68
2022/01/29 18:06:26;;;;;;;3.67;1.80;;;17.70;65.40;;;;;;10365377;28;20568;-68
2022/01/29 18:11:49;;;;;;;2.50;1.20;;;17.60;65.40;;;;;;10367885;28;20214;-68
2022/01/29 18:17:11;;;;;;;4.40;1.70;;;17.60;65.40;;;;;;10367686;28;20656;-68
2022/01/29 18:22:34;;;;;;;2.90;1.37;;;17.60;65.40;;;;;;10367695;28;20218;-68
2022/01/29 18:27:58;;;;;;;4.47;1.93;;;17.60;65.30;;;;;;10366642;28;20190;-67
2022/01/29 18:33:20;;;;;;;3.00;1.57;;;17.60;65.20;;;;;;10369134;28;20198;-68
2022/01/29 18:38:45;;;;;;;3.73;1.70;;;17.60;65.20;;;;;;10367932;28;20218;-67
2022/01/29 18:44:09;;;;;;;5.17;1.83;;;17.60;65.20;;;;;;10367333;28;20685;-68
2022/01/29 18:49:31;;;;;;;3.90;1.70;;;17.70;65.20;;;;;;10363191;28;20694;-65
2022/01/29 18:54:54;;;;;;;3.80;1.70;;;17.60;65.10;;;;;;10363631;28;20198;-66
2022/01/29 19:00:17;;;;;;;3.87;1.60;;;17.60;65.10;;;;;;10348006;28;20226;-66
2022/01/29 19:05:40;;;;;;;5.00;1.90;;;17.60;65.10;;;;;;10328281;28;20689;-67
2022/01/29 19:11:06;;;;;;;7.60;2.30;;;17.70;65.10;;;;;;10325452;28;20218;-67
2022/01/29 19:16:29;;;;;;;4.53;1.83;;;17.60;65.00;;;;;;10361990;28;20341;-67
2022/01/29 19:21:51;;;;;;;5.17;1.50;;;17.60;65.00;;;;;;10370361;28;20229;-69
2022/01/29 19:27:14;;;;;;;4.30;1.80;;;17.60;65.00;;;;;;10366757;28;20202;-68
2022/01/29 19:32:37;;;;;;;4.77;1.93;;;17.60;65.00;;;;;;10365728;28;20222;-66
2022/01/29 19:37:59;;;;;;;4.37;1.63;;;17.60;65.00;;;;;;10364025;28;20229;-66
2022/01/29 19:43:23;;;;;;;5.13;2.00;;;17.60;64.90;;;;;;10329968;28;20767;-66
2022/01/29 19:48:47;;;;;;;4.43;1.77;;;17.60;64.90;;;;;;10325795;28;20222;-68
2022/01/29 19:54:10;;;;;;;5.27;1.70;;;17.60;64.90;;;;;;10369249;28;20277;-67
2022/01/29 19:59:33;;;;;;;5.13;1.73;;;17.60;64.90;;;;;;10380949;28;20229;-67
2022/01/29 20:04:56;;;;;;;3.10;1.50;;;17.60;64.60;;;;;;10365618;28;20201;-67
2022/01/29 20:10:20;;;;;;;3.90;1.80;;;17.60;64.70;;;;;;10365326;28;20292;-67
2022/01/29 20:15:44;;;;;;;4.80;2.00;;;17.60;64.60;;;;;;10364739;28;20866;-68
2022/01/29 20:21:06;;;;;;;4.83;2.10;;;17.60;64.50;;;;;;10364504;28;20603;-68
2022/01/29 20:26:30;;;;;;;7.73;2.50;;;17.60;64.50;;;;;;10365584;28;20209;-67
2022/01/29 20:31:54;;;;;;;4.87;2.00;;;17.60;64.50;;;;;;10364947;28;20219;-68
2022/01/29 20:37:16;;;;;;;3.93;1.63;;;17.60;64.40;;;;;;10365176;28;20202;-67
2022/01/29 20:42:39;;;;;;;3.60;1.70;;;17.60;64.40;;;;;;10362752;28;20272;-68
2022/01/29 20:48:02;;;;;;;5.43;1.90;;;17.60;64.50;;;;;;10355260;28;20206;-66
2022/01/29 20:53:25;;;;;;;5.20;1.67;;;17.60;64.50;;;;;;10363029;28;20209;-66
2022/01/29 20:58:47;;;;;;;3.03;1.63;;;17.60;64.40;;;;;;10370598;28;20229;-67
2022/01/29 21:04:10;;;;;;;8.07;1.80;;;17.60;64.40;;;;;;10360289;28;20732;-68
2022/01/29 21:09:33;;;;;;;3.97;1.60;;;17.50;64.90;;;;;;10369743;28;20222;-68
2022/01/29 21:14:55;;;;;;;4.80;1.80;;;17.60;64.10;;;;;;10372965;28;20198;-67
2022/01/29 21:20:19;;;;;;;4.63;1.90;;;17.50;64.10;;;;;;10382594;28;20588;-68
2022/01/29 21:25:44;;;;;;;4.63;1.90;;;17.50;64.00;;;;;;10369528;28;20206;-68
2022/01/29 21:31:06;;;;;;;5.30;2.03;;;17.50;64.10;;;;;;10370681;28;20206;-67
2022/01/29 21:36:30;;;;;;;4.93;1.80;;;17.60;64.10;;;;;;10396949;28;20205;-67
2022/01/29 21:41:53;;;;;;;4.27;2.10;;;17.60;64.10;;;;;;10367243;28;20218;-67
2022/01/29 21:47:15;;;;;;;4.73;1.70;;;17.60;64.00;;;;;;10366560;28;20288;-68
2022/01/29 21:52:38;;;;;;;4.20;1.63;;;17.50;64.00;;;;;;10353950;28;20565;-69
2022/01/29 21:58:01;;;;;;;5.10;1.70;;;17.50;64.10;;;;;;10408762;28;20208;-68
2022/01/29 22:03:24;;;;;;;4.77;1.70;;;17.50;64.00;;;;;;10388710;28;20571;-68
2022/01/29 22:08:49;;;;;;;7.07;1.87;;;17.50;64.00;;;;;;10327584;28;20222;-69
2022/01/29 22:14:11;;;;;;;4.47;1.93;;;17.50;64.00;;;;;;10359892;28;20241;-70
2022/01/29 22:19:33;;;;;;;4.37;1.53;;;17.50;64.00;;;;;;10367909;28;20218;-68
2022/01/29 22:24:57;;;;;;;5.13;1.70;;;17.50;64.00;;;;;;10371649;28;20195;-68
2022/01/29 22:30:19;;;;;;;5.53;2.33;;;17.50;63.80;;;;;;10374461;28;20244;-68
2022/01/29 22:35:41;;;;;;;3.63;1.70;;;17.50;63.90;;;;;;10409340;28;20198;-68
2022/01/29 22:41:05;;;;;;;6.23;1.80;;;17.50;63.90;;;;;;10405630;28;20588;-68
2022/01/29 22:46:27;;;;;;;7.00;2.10;;;17.50;64.00;;;;;;10404106;28;20660;-67
2022/01/29 22:51:49;;;;;;;3.93;1.77;;;17.50;63.70;;;;;;10400694;28;20229;-67
2022/01/29 22:57:13;;;;;;;4.53;2.00;;;17.40;63.50;;;;;;10375754;28;20198;-67
2022/01/29 23:02:35;;;;;;;5.57;1.83;;;17.40;63.60;;;;;;10373075;28;20719;-67
2022/01/29 23:07:57;;;;;;;3.90;1.70;;;17.40;63.70;;;;;;10379987;28;20194;-67
2022/01/29 23:13:26;;;;;;;4.73;1.63;;;17.50;63.60;;;;;;10388882;28;20201;-68
2022/01/29 23:18:48;;;;;;;3.40;1.47;;;17.40;63.50;;;;;;10413304;28;20232;-67
2022/01/29 23:24:12;;;;;;;5.47;2.13;;;17.40;63.60;;;;;;10408970;28;20190;-67
2022/01/29 23:29:40;;;;;;;3.60;1.50;;;17.40;63.50;;;;;;10371389;28;20218;-68
2022/01/29 23:35:06;;;;;;;5.20;2.20;;;17.40;63.50;;;;;;10373915;28;20237;-67
2022/01/29 23:40:33;;;;;;;5.37;1.67;;;17.50;63.50;;;;;;10372711;28;20229;-68
2022/01/29 23:46:10;;;;;;;4.67;1.50;;;17.50;63.50;;;;;;10368077;28;20283;-68
2022/01/29 23:51:32;;;;;;;4.70;1.87;;;17.40;64.10;;;;;;10372791;28;20215;-65
2022/01/29 23:56:54;;;;;;;4.53;1.57;;;17.40;63.50;;;;;;10463998;22;20220;-68
